RYR59SQ LEPA-EDDG
Flight info
| Callsign | RYR59SQ |
|---|---|
| Flight time | 1h 57m |
| Altitude | 36000 |
| Route | MEROS N853 LUMAS DCT MAXIR DCT LUSOL DCT BODRU DCT OKTET DCT IRMAR DCT KINES DCT VANAS DCT MOBLO DCT UBIMA DCT GILIR DCT PENDU DCT IXILU DCT EPL DCT ROUSY DCT DIK/N0445F370 T856 DEPOK/N0385F230 T856 QATJA N853 HMM HMM1A |
| Aircraft | A320/M-SDE3FGHIRWY/LB1 |
Departure
| Time | 2026-05-06 12:52 |
|---|---|
| Airport | Palma de Mallorca Airport (LEPA) |
Arrival
| Time | 2026-05-06 14:50 |
|---|---|
| Airport | Münster Osnabrück Airport (EDDG) |
| Time | Latitude | Longitude | Altitude | Speed | Heading |
|---|---|---|---|---|---|
| 2026-05-06 12:14 | 39.55087 | 2.73618 | 37 ft | 0 kts | 189° |
| 2026-05-06 12:44 | 39.55093 | 2.73619 | 38 ft | 3 kts | 189° |
| 2026-05-06 12:44 | 39.55114 | 2.73623 | 37 ft | 4 kts | 175° |
| 2026-05-06 12:45 | 39.55139 | 2.73614 | 37 ft | 4 kts | 149° |
| 2026-05-06 12:45 | 39.55159 | 2.73594 | 38 ft | 4 kts | 115° |
| 2026-05-06 12:45 | 39.55150 | 2.73534 | 37 ft | 4 kts | 58° |
| 2026-05-06 12:46 | 39.55137 | 2.73506 | 36 ft | 2 kts | 59° |
| 2026-05-06 12:46 | 39.55136 | 2.73505 | 36 ft | 0 kts | 59° |
| 2026-05-06 12:48 | 39.55139 | 2.73512 | 38 ft | 4 kts | 59° |
| 2026-05-06 12:48 | 39.55158 | 2.73552 | 36 ft | 7 kts | 58° |
| 2026-05-06 12:48 | 39.55175 | 2.73625 | 36 ft | 10 kts | 106° |
| 2026-05-06 12:49 | 39.55175 | 2.73730 | 38 ft | 14 kts | 104° |
| 2026-05-06 12:49 | 39.55215 | 2.73816 | 38 ft | 16 kts | 342° |
| 2026-05-06 12:49 | 39.55321 | 2.73735 | 38 ft | 18 kts | 328° |
| 2026-05-06 12:49 | 39.55425 | 2.73654 | 38 ft | 17 kts | 329° |
| 2026-05-06 12:50 | 39.55520 | 2.73579 | 38 ft | 15 kts | 329° |
| 2026-05-06 12:50 | 39.55606 | 2.73515 | 37 ft | 13 kts | 337° |
| 2026-05-06 12:50 | 39.55682 | 2.73555 | 38 ft | 14 kts | 50° |
| 2026-05-06 12:50 | 39.55742 | 2.73685 | 38 ft | 19 kts | 59° |
| 2026-05-06 12:51 | 39.55820 | 2.73852 | 36 ft | 23 kts | 60° |
| 2026-05-06 12:51 | 39.55934 | 2.73866 | 38 ft | 18 kts | 328° |
| 2026-05-06 12:51 | 39.55996 | 2.73779 | 38 ft | 11 kts | 254° |
| 2026-05-06 12:51 | 39.55926 | 2.73630 | 38 ft | 47 kts | 238° |
| 2026-05-06 12:52 | 39.55622 | 2.72988 | 38 ft | 117 kts | 238° |
| 2026-05-06 12:52 | 39.55094 | 2.71879 | 42 ft | 170 kts | 238° |
| 2026-05-06 12:52 | 39.54481 | 2.70520 | 603 ft | 174 kts | 238° |
| 2026-05-06 12:52 | 39.53899 | 2.69164 | 1408 ft | 170 kts | 239° |
| 2026-05-06 12:53 | 39.53261 | 2.67863 | 1990 ft | 176 kts | 237° |
| 2026-05-06 12:53 | 39.52562 | 2.66451 | 2316 ft | 197 kts | 236° |
| 2026-05-06 12:53 | 39.51756 | 2.64884 | 2600 ft | 222 kts | 236° |
| 2026-05-06 12:53 | 39.50892 | 2.63192 | 3387 ft | 221 kts | 237° |
| 2026-05-06 12:54 | 39.50094 | 2.61489 | 4265 ft | 221 kts | 240° |
| 2026-05-06 12:54 | 39.49203 | 2.59887 | 5087 ft | 221 kts | 222° |
| 2026-05-06 12:54 | 39.47889 | 2.58760 | 5640 ft | 235 kts | 209° |
| 2026-05-06 12:54 | 39.46406 | 2.57700 | 6116 ft | 254 kts | 210° |
| 2026-05-06 12:55 | 39.44803 | 2.56520 | 6616 ft | 272 kts | 210° |
| 2026-05-06 12:55 | 39.43031 | 2.55605 | 7362 ft | 280 kts | 189° |
| 2026-05-06 12:55 | 39.41127 | 2.55836 | 8459 ft | 272 kts | 160° |
| 2026-05-06 12:55 | 39.39619 | 2.57163 | 9777 ft | 261 kts | 134° |
| 2026-05-06 12:56 | 39.38441 | 2.59079 | 10096 ft | 288 kts | 128° |
| 2026-05-06 12:56 | 39.37188 | 2.61306 | 10024 ft | 325 kts | 127° |
| 2026-05-06 12:56 | 39.35762 | 2.63780 | 9895 ft | 360 kts | 131° |
| 2026-05-06 12:56 | 39.34016 | 2.66112 | 10652 ft | 357 kts | 140° |
| 2026-05-06 12:57 | 39.32168 | 2.68134 | 11976 ft | 339 kts | 142° |
| 2026-05-06 12:57 | 39.30512 | 2.70219 | 13247 ft | 330 kts | 136° |
| 2026-05-06 12:57 | 39.28858 | 2.72399 | 13512 ft | 350 kts | 139° |
| 2026-05-06 12:57 | 39.27370 | 2.74931 | 13870 ft | 370 kts | 117° |
| 2026-05-06 12:58 | 39.26745 | 2.78195 | 14425 ft | 381 kts | 97° |
| 2026-05-06 12:58 | 39.26594 | 2.81628 | 15041 ft | 386 kts | 93° |
| 2026-05-06 12:58 | 39.26596 | 2.85113 | 15661 ft | 390 kts | 88° |
| 2026-05-06 12:58 | 39.27030 | 2.88588 | 16259 ft | 396 kts | 74° |
| 2026-05-06 12:59 | 39.28159 | 2.91843 | 16861 ft | 400 kts | 56° |
| 2026-05-06 12:59 | 39.29987 | 2.94543 | 17441 ft | 402 kts | 37° |
| 2026-05-06 12:59 | 39.32337 | 2.96480 | 18035 ft | 403 kts | 26° |
| 2026-05-06 12:59 | 39.34807 | 2.98228 | 18582 ft | 407 kts | 25° |
| 2026-05-06 13:00 | 39.37312 | 2.99981 | 19075 ft | 411 kts | 25° |
| 2026-05-06 13:00 | 39.39843 | 3.01744 | 19581 ft | 415 kts | 25° |
| 2026-05-06 13:00 | 39.42398 | 3.03526 | 20090 ft | 420 kts | 25° |
| 2026-05-06 13:00 | 39.44977 | 3.05336 | 20596 ft | 424 kts | 25° |
| 2026-05-06 13:01 | 39.47580 | 3.07170 | 21066 ft | 429 kts | 26° |
| 2026-05-06 13:01 | 39.50210 | 3.09033 | 21571 ft | 433 kts | 26° |
| 2026-05-06 13:01 | 39.52862 | 3.10915 | 22074 ft | 437 kts | 26° |
| 2026-05-06 13:01 | 39.55536 | 3.12813 | 22573 ft | 441 kts | 26° |
| 2026-05-06 13:02 | 39.58240 | 3.14729 | 23047 ft | 445 kts | 26° |
| 2026-05-06 13:02 | 39.60966 | 3.16662 | 23511 ft | 449 kts | 26° |
| 2026-05-06 13:02 | 39.63716 | 3.18611 | 23892 ft | 452 kts | 26° |
| 2026-05-06 13:02 | 39.66483 | 3.20576 | 24297 ft | 455 kts | 26° |
| 2026-05-06 13:03 | 39.69267 | 3.22557 | 24695 ft | 457 kts | 25° |
| 2026-05-06 13:03 | 39.72064 | 3.24548 | 25086 ft | 460 kts | 25° |
| 2026-05-06 13:03 | 39.74874 | 3.26551 | 25461 ft | 462 kts | 25° |
| 2026-05-06 13:03 | 39.77701 | 3.28570 | 25838 ft | 465 kts | 25° |
| 2026-05-06 13:04 | 39.80543 | 3.30602 | 26191 ft | 468 kts | 25° |
| 2026-05-06 13:04 | 39.83404 | 3.32649 | 26546 ft | 470 kts | 25° |
| 2026-05-06 13:04 | 39.86278 | 3.34704 | 26898 ft | 473 kts | 25° |
| 2026-05-06 13:04 | 39.89167 | 3.36770 | 27246 ft | 475 kts | 25° |
| 2026-05-06 13:05 | 39.92068 | 3.38852 | 27586 ft | 477 kts | 25° |
| 2026-05-06 13:05 | 39.94983 | 3.40949 | 27923 ft | 480 kts | 25° |
| 2026-05-06 13:05 | 39.97912 | 3.43051 | 28251 ft | 482 kts | 25° |
| 2026-05-06 13:05 | 40.00860 | 3.45168 | 28561 ft | 485 kts | 25° |
| 2026-05-06 13:06 | 40.03819 | 3.47296 | 28861 ft | 488 kts | 25° |
| 2026-05-06 13:06 | 40.06798 | 3.49442 | 29155 ft | 490 kts | 25° |
| 2026-05-06 13:06 | 40.09789 | 3.51601 | 29441 ft | 492 kts | 25° |
| 2026-05-06 13:06 | 40.12790 | 3.53770 | 29731 ft | 494 kts | 25° |
| 2026-05-06 13:07 | 40.15806 | 3.55953 | 30011 ft | 496 kts | 25° |
| 2026-05-06 13:07 | 40.18835 | 3.58144 | 30242 ft | 498 kts | 25° |
| 2026-05-06 13:07 | 40.21875 | 3.60343 | 30467 ft | 501 kts | 25° |
| 2026-05-06 13:07 | 40.24934 | 3.62558 | 30648 ft | 504 kts | 25° |
| 2026-05-06 13:08 | 40.28009 | 3.64789 | 30845 ft | 506 kts | 25° |
| 2026-05-06 13:08 | 40.31091 | 3.67036 | 31082 ft | 507 kts | 25° |
| 2026-05-06 13:08 | 40.34168 | 3.69280 | 31379 ft | 506 kts | 25° |
| 2026-05-06 13:08 | 40.37243 | 3.71525 | 31673 ft | 506 kts | 25° |
| 2026-05-06 13:09 | 40.40316 | 3.73768 | 31961 ft | 505 kts | 25° |
| 2026-05-06 13:09 | 40.43386 | 3.76007 | 32281 ft | 505 kts | 25° |
| 2026-05-06 13:09 | 40.46463 | 3.78246 | 32547 ft | 506 kts | 25° |
| 2026-05-06 13:09 | 40.49537 | 3.80485 | 32813 ft | 506 kts | 25° |
| 2026-05-06 13:10 | 40.52613 | 3.82730 | 33083 ft | 505 kts | 25° |
| 2026-05-06 13:10 | 40.55640 | 3.84944 | 33367 ft | 505 kts | 25° |
| 2026-05-06 13:10 | 40.58707 | 3.87197 | 33660 ft | 505 kts | 25° |
| 2026-05-06 13:10 | 40.61770 | 3.89453 | 33948 ft | 504 kts | 25° |
| 2026-05-06 13:11 | 40.64827 | 3.91703 | 34202 ft | 504 kts | 25° |
| 2026-05-06 13:11 | 40.67886 | 3.93953 | 34456 ft | 503 kts | 25° |
| 2026-05-06 13:11 | 40.70941 | 3.96203 | 34700 ft | 503 kts | 25° |
| 2026-05-06 13:11 | 40.73989 | 3.98452 | 34943 ft | 502 kts | 25° |
| 2026-05-06 13:12 | 40.77038 | 4.00702 | 35187 ft | 502 kts | 25° |
| 2026-05-06 13:12 | 40.80084 | 4.02951 | 35416 ft | 501 kts | 25° |
| 2026-05-06 13:12 | 40.83124 | 4.05198 | 35634 ft | 501 kts | 25° |
| 2026-05-06 13:12 | 40.86164 | 4.07447 | 35863 ft | 501 kts | 25° |
| 2026-05-06 13:13 | 40.89203 | 4.09699 | 35950 ft | 501 kts | 25° |
| 2026-05-06 13:13 | 40.95269 | 4.14206 | 35973 ft | 499 kts | 25° |
| 2026-05-06 13:14 | 41.01320 | 4.18711 | 35975 ft | 499 kts | 25° |
| 2026-05-06 13:14 | 41.07373 | 4.23227 | 35969 ft | 500 kts | 25° |
| 2026-05-06 13:15 | 41.13433 | 4.27751 | 35974 ft | 500 kts | 25° |
| 2026-05-06 13:15 | 41.19491 | 4.32286 | 35973 ft | 500 kts | 26° |
| 2026-05-06 13:16 | 41.25550 | 4.36837 | 35971 ft | 500 kts | 26° |
| 2026-05-06 13:16 | 41.31613 | 4.41394 | 35994 ft | 501 kts | 26° |
| 2026-05-06 13:17 | 41.37677 | 4.45963 | 35990 ft | 501 kts | 26° |
| 2026-05-06 13:17 | 41.43701 | 4.50503 | 35987 ft | 501 kts | 26° |
| 2026-05-06 13:18 | 41.49760 | 4.55095 | 36010 ft | 501 kts | 26° |
| 2026-05-06 13:18 | 41.55822 | 4.59699 | 35977 ft | 501 kts | 26° |
| 2026-05-06 13:19 | 41.61888 | 4.64305 | 35969 ft | 502 kts | 26° |
| 2026-05-06 13:19 | 41.67951 | 4.68925 | 35968 ft | 502 kts | 26° |
| 2026-05-06 13:20 | 41.74019 | 4.73560 | 35981 ft | 502 kts | 26° |
| 2026-05-06 13:20 | 41.80089 | 4.78209 | 35972 ft | 503 kts | 26° |
| 2026-05-06 13:21 | 41.86160 | 4.82861 | 35968 ft | 503 kts | 26° |
| 2026-05-06 13:21 | 41.92229 | 4.87532 | 35981 ft | 503 kts | 26° |
| 2026-05-06 13:22 | 41.98297 | 4.92206 | 35974 ft | 503 kts | 26° |
| 2026-05-06 13:22 | 42.04370 | 4.96893 | 35944 ft | 503 kts | 26° |
| 2026-05-06 13:23 | 42.10446 | 5.01586 | 35980 ft | 504 kts | 27° |
| 2026-05-06 13:23 | 42.16524 | 5.06296 | 35964 ft | 504 kts | 27° |
| 2026-05-06 13:24 | 42.22604 | 5.11033 | 35960 ft | 505 kts | 27° |
| 2026-05-06 13:24 | 42.28691 | 5.15774 | 35959 ft | 505 kts | 27° |
| 2026-05-06 13:25 | 42.34775 | 5.20527 | 35971 ft | 505 kts | 27° |
| 2026-05-06 13:25 | 42.40856 | 5.25283 | 35965 ft | 505 kts | 27° |
| 2026-05-06 13:26 | 42.45912 | 5.29243 | 35963 ft | 505 kts | 27° |
| 2026-05-06 13:26 | 42.51989 | 5.34017 | 35952 ft | 505 kts | 27° |
| 2026-05-06 13:27 | 42.58065 | 5.38798 | 35944 ft | 505 kts | 26° |
| 2026-05-06 13:27 | 42.61231 | 5.40787 | 35942 ft | 499 kts | 15° |
| 2026-05-06 13:27 | 42.64503 | 5.42346 | 35939 ft | 499 kts | 15° |
| 2026-05-06 13:28 | 42.71056 | 5.45451 | 35940 ft | 499 kts | 15° |
| 2026-05-06 13:28 | 42.77614 | 5.48560 | 35935 ft | 499 kts | 15° |
| 2026-05-06 13:29 | 42.84179 | 5.51680 | 35937 ft | 500 kts | 15° |
| 2026-05-06 13:29 | 42.90748 | 5.54804 | 35961 ft | 500 kts | 15° |
| 2026-05-06 13:30 | 42.97315 | 5.57935 | 35954 ft | 500 kts | 15° |
| 2026-05-06 13:30 | 43.03879 | 5.61079 | 35958 ft | 500 kts | 15° |
| 2026-05-06 13:31 | 43.10438 | 5.64231 | 35976 ft | 500 kts | 15° |
| 2026-05-06 13:31 | 43.16953 | 5.67366 | 35954 ft | 499 kts | 15° |
| 2026-05-06 13:32 | 43.23507 | 5.70516 | 35942 ft | 499 kts | 15° |
| 2026-05-06 13:32 | 43.30060 | 5.73676 | 35931 ft | 499 kts | 15° |
| 2026-05-06 13:33 | 43.36659 | 5.76864 | 35912 ft | 499 kts | 15° |
| 2026-05-06 13:33 | 43.43209 | 5.80047 | 35903 ft | 499 kts | 15° |
| 2026-05-06 13:34 | 43.49712 | 5.83216 | 35920 ft | 499 kts | 15° |
| 2026-05-06 13:34 | 43.56299 | 5.86428 | 35908 ft | 499 kts | 15° |
| 2026-05-06 13:35 | 43.62844 | 5.89617 | 35903 ft | 499 kts | 15° |
| 2026-05-06 13:35 | 43.69384 | 5.92819 | 35917 ft | 499 kts | 16° |
| 2026-05-06 13:36 | 43.75874 | 5.96010 | 35908 ft | 498 kts | 16° |
| 2026-05-06 13:36 | 43.82406 | 5.99217 | 35900 ft | 498 kts | 16° |
| 2026-05-06 13:37 | 43.88923 | 6.02438 | 35917 ft | 497 kts | 16° |
| 2026-05-06 13:37 | 43.95435 | 6.05667 | 35912 ft | 496 kts | 16° |
| 2026-05-06 13:38 | 44.01938 | 6.08891 | 35882 ft | 496 kts | 16° |
| 2026-05-06 13:38 | 44.08444 | 6.12114 | 35904 ft | 497 kts | 16° |
| 2026-05-06 13:39 | 44.14967 | 6.15354 | 35897 ft | 498 kts | 16° |
| 2026-05-06 13:39 | 44.21499 | 6.18614 | 35897 ft | 499 kts | 16° |
| 2026-05-06 13:40 | 44.28033 | 6.21881 | 35914 ft | 499 kts | 17° |
| 2026-05-06 13:40 | 44.34567 | 6.25151 | 35904 ft | 499 kts | 17° |
| 2026-05-06 13:41 | 44.41101 | 6.28434 | 35908 ft | 499 kts | 17° |
| 2026-05-06 13:41 | 44.47623 | 6.31724 | 35933 ft | 498 kts | 17° |
| 2026-05-06 13:42 | 44.54145 | 6.35026 | 35924 ft | 498 kts | 17° |
| 2026-05-06 13:42 | 44.60663 | 6.38322 | 35920 ft | 498 kts | 17° |
| 2026-05-06 13:43 | 44.67179 | 6.41612 | 35907 ft | 498 kts | 17° |
| 2026-05-06 13:43 | 44.73690 | 6.44918 | 35905 ft | 497 kts | 17° |
| 2026-05-06 13:44 | 44.80198 | 6.48231 | 35874 ft | 497 kts | 17° |
| 2026-05-06 13:44 | 44.86663 | 6.51536 | 35892 ft | 498 kts | 17° |
| 2026-05-06 13:45 | 44.93171 | 6.54879 | 35895 ft | 497 kts | 17° |
| 2026-05-06 13:45 | 45.02929 | 6.59890 | 35892 ft | 497 kts | 17° |
| 2026-05-06 13:46 | 45.09429 | 6.63234 | 35888 ft | 497 kts | 17° |
| 2026-05-06 13:46 | 45.15929 | 6.66586 | 35888 ft | 497 kts | 17° |
| 2026-05-06 13:47 | 45.22423 | 6.69949 | 35918 ft | 497 kts | 18° |
| 2026-05-06 13:47 | 45.28919 | 6.73327 | 35922 ft | 497 kts | 16° |
| 2026-05-06 13:48 | 45.35623 | 6.75204 | 35922 ft | 488 kts | 358° |
| 2026-05-06 13:48 | 45.42355 | 6.74812 | 35931 ft | 481 kts | 346° |
| 2026-05-06 13:49 | 45.48864 | 6.72916 | 35918 ft | 478 kts | 343° |
| 2026-05-06 13:49 | 45.55369 | 6.70952 | 35934 ft | 478 kts | 343° |
| 2026-05-06 13:50 | 45.61881 | 6.68973 | 35954 ft | 479 kts | 343° |
| 2026-05-06 13:50 | 45.68396 | 6.66987 | 35946 ft | 478 kts | 343° |
| 2026-05-06 13:51 | 45.74900 | 6.65010 | 35965 ft | 477 kts | 343° |
| 2026-05-06 13:51 | 45.81394 | 6.63027 | 35965 ft | 477 kts | 343° |
| 2026-05-06 13:52 | 45.87875 | 6.61042 | 35958 ft | 476 kts | 343° |
| 2026-05-06 13:52 | 45.94361 | 6.59054 | 35951 ft | 476 kts | 343° |
| 2026-05-06 13:53 | 46.00843 | 6.57066 | 35953 ft | 476 kts | 343° |
| 2026-05-06 13:53 | 46.07323 | 6.55070 | 35944 ft | 476 kts | 343° |
| 2026-05-06 13:54 | 46.13797 | 6.53063 | 35934 ft | 476 kts | 343° |
| 2026-05-06 13:54 | 46.20270 | 6.51053 | 35939 ft | 476 kts | 344° |
| 2026-05-06 13:55 | 46.26758 | 6.49089 | 35930 ft | 478 kts | 348° |
| 2026-05-06 13:55 | 46.33402 | 6.48265 | 35922 ft | 480 kts | 352° |
| 2026-05-06 13:56 | 46.40061 | 6.47524 | 35924 ft | 480 kts | 352° |
| 2026-05-06 13:56 | 46.46725 | 6.46784 | 35912 ft | 480 kts | 352° |
| 2026-05-06 13:57 | 46.53400 | 6.46050 | 35940 ft | 481 kts | 353° |
| 2026-05-06 13:57 | 46.60066 | 6.45317 | 35936 ft | 480 kts | 353° |
| 2026-05-06 13:58 | 46.66667 | 6.44579 | 35930 ft | 479 kts | 353° |
| 2026-05-06 13:58 | 46.73299 | 6.43838 | 35927 ft | 478 kts | 353° |
| 2026-05-06 13:59 | 46.79929 | 6.43091 | 35930 ft | 478 kts | 353° |
| 2026-05-06 13:59 | 46.86554 | 6.42343 | 35927 ft | 477 kts | 353° |
| 2026-05-06 14:00 | 46.93175 | 6.41598 | 35921 ft | 477 kts | 353° |
| 2026-05-06 14:00 | 46.99796 | 6.40858 | 35918 ft | 477 kts | 353° |
| 2026-05-06 14:01 | 47.06411 | 6.40117 | 35922 ft | 477 kts | 353° |
| 2026-05-06 14:01 | 47.13021 | 6.39375 | 35916 ft | 476 kts | 353° |
| 2026-05-06 14:02 | 47.19633 | 6.38617 | 35913 ft | 476 kts | 353° |
| 2026-05-06 14:02 | 47.26235 | 6.37861 | 35911 ft | 476 kts | 353° |
| 2026-05-06 14:03 | 47.32833 | 6.37110 | 35908 ft | 476 kts | 353° |
| 2026-05-06 14:03 | 47.39432 | 6.36358 | 35899 ft | 475 kts | 353° |
| 2026-05-06 14:04 | 47.46025 | 6.35609 | 35898 ft | 475 kts | 353° |
| 2026-05-06 14:04 | 47.52617 | 6.34853 | 35891 ft | 475 kts | 353° |
| 2026-05-06 14:05 | 47.59205 | 6.34092 | 35885 ft | 475 kts | 353° |
| 2026-05-06 14:05 | 47.65786 | 6.33332 | 35870 ft | 474 kts | 353° |
| 2026-05-06 14:06 | 47.72320 | 6.32580 | 35878 ft | 474 kts | 353° |
| 2026-05-06 14:06 | 47.78892 | 6.31811 | 35893 ft | 473 kts | 354° |
| 2026-05-06 14:07 | 47.85446 | 6.31036 | 35891 ft | 472 kts | 354° |
| 2026-05-06 14:07 | 47.91986 | 6.30270 | 35884 ft | 471 kts | 354° |
| 2026-05-06 14:08 | 47.98517 | 6.29507 | 35881 ft | 471 kts | 354° |
| 2026-05-06 14:08 | 48.05046 | 6.28744 | 35865 ft | 470 kts | 354° |
| 2026-05-06 14:09 | 48.11564 | 6.27983 | 35863 ft | 470 kts | 354° |
| 2026-05-06 14:09 | 48.18078 | 6.27216 | 35854 ft | 469 kts | 354° |
| 2026-05-06 14:10 | 48.24585 | 6.26438 | 35850 ft | 469 kts | 354° |
| 2026-05-06 14:10 | 48.31094 | 6.25661 | 35851 ft | 469 kts | 354° |
| 2026-05-06 14:11 | 48.37611 | 6.24890 | 35857 ft | 469 kts | 354° |
| 2026-05-06 14:11 | 48.44116 | 6.24120 | 35848 ft | 468 kts | 354° |
| 2026-05-06 14:12 | 48.50605 | 6.23341 | 35846 ft | 468 kts | 354° |
| 2026-05-06 14:12 | 48.57095 | 6.22556 | 35846 ft | 468 kts | 354° |
| 2026-05-06 14:13 | 48.62490 | 6.21920 | 35847 ft | 468 kts | 356° |
| 2026-05-06 14:13 | 48.68972 | 6.22862 | 35838 ft | 469 kts | 9° |
| 2026-05-06 14:14 | 48.75376 | 6.24723 | 35833 ft | 469 kts | 11° |
| 2026-05-06 14:14 | 48.81768 | 6.26748 | 35833 ft | 469 kts | 11° |
| 2026-05-06 14:15 | 48.88162 | 6.28735 | 35829 ft | 469 kts | 11° |
| 2026-05-06 14:15 | 48.94565 | 6.30671 | 35834 ft | 469 kts | 11° |
| 2026-05-06 14:16 | 49.00971 | 6.32590 | 35833 ft | 469 kts | 11° |
| 2026-05-06 14:16 | 49.07376 | 6.34529 | 35834 ft | 469 kts | 11° |
| 2026-05-06 14:17 | 49.13780 | 6.36491 | 35836 ft | 469 kts | 11° |
| 2026-05-06 14:17 | 49.20186 | 6.38469 | 35829 ft | 470 kts | 11° |
| 2026-05-06 14:18 | 49.26596 | 6.40436 | 35817 ft | 470 kts | 11° |
| 2026-05-06 14:18 | 49.33012 | 6.42389 | 35820 ft | 470 kts | 11° |
| 2026-05-06 14:19 | 49.39433 | 6.44360 | 35824 ft | 471 kts | 11° |
| 2026-05-06 14:19 | 49.45857 | 6.46350 | 35828 ft | 471 kts | 11° |
| 2026-05-06 14:20 | 49.52288 | 6.48340 | 35833 ft | 472 kts | 11° |
| 2026-05-06 14:20 | 49.58732 | 6.50249 | 35840 ft | 472 kts | 8° |
| 2026-05-06 14:21 | 49.65181 | 6.51721 | 35837 ft | 471 kts | 6° |
| 2026-05-06 14:21 | 49.71728 | 6.53040 | 35832 ft | 471 kts | 6° |
| 2026-05-06 14:22 | 49.78183 | 6.54409 | 35821 ft | 471 kts | 7° |
| 2026-05-06 14:22 | 49.84671 | 6.55866 | 35813 ft | 471 kts | 7° |
| 2026-05-06 14:23 | 49.91146 | 6.57360 | 35796 ft | 470 kts | 7° |
| 2026-05-06 14:23 | 49.97619 | 6.58827 | 35814 ft | 470 kts | 7° |
| 2026-05-06 14:24 | 50.04097 | 6.60278 | 35820 ft | 470 kts | 7° |
| 2026-05-06 14:24 | 50.10568 | 6.61744 | 35815 ft | 470 kts | 7° |
| 2026-05-06 14:25 | 50.17043 | 6.63208 | 35818 ft | 470 kts | 7° |
| 2026-05-06 14:25 | 50.23511 | 6.64678 | 35825 ft | 470 kts | 7° |
| 2026-05-06 14:26 | 50.29976 | 6.66160 | 35821 ft | 469 kts | 7° |
| 2026-05-06 14:26 | 50.36427 | 6.67747 | 35817 ft | 470 kts | 14° |
| 2026-05-06 14:27 | 50.39503 | 6.69464 | 35598 ft | 470 kts | 22° |
| 2026-05-06 14:27 | 50.42518 | 6.71458 | 35368 ft | 470 kts | 22° |
| 2026-05-06 14:27 | 50.45522 | 6.73482 | 35122 ft | 469 kts | 23° |
| 2026-05-06 14:27 | 50.48514 | 6.75517 | 34886 ft | 468 kts | 22° |
| 2026-05-06 14:28 | 50.51501 | 6.77551 | 34656 ft | 468 kts | 22° |
| 2026-05-06 14:28 | 50.54486 | 6.79578 | 34416 ft | 467 kts | 22° |
| 2026-05-06 14:28 | 50.57472 | 6.81597 | 34181 ft | 467 kts | 22° |
| 2026-05-06 14:28 | 50.60457 | 6.83611 | 33842 ft | 467 kts | 22° |
| 2026-05-06 14:29 | 50.63436 | 6.85620 | 33299 ft | 465 kts | 22° |
| 2026-05-06 14:29 | 50.66400 | 6.87628 | 32750 ft | 462 kts | 22° |
| 2026-05-06 14:29 | 50.69338 | 6.89622 | 32180 ft | 457 kts | 23° |
| 2026-05-06 14:29 | 50.72249 | 6.91598 | 31527 ft | 454 kts | 23° |
| 2026-05-06 14:30 | 50.75134 | 6.93559 | 30879 ft | 450 kts | 23° |
| 2026-05-06 14:30 | 50.77996 | 6.95510 | 30254 ft | 446 kts | 23° |
| 2026-05-06 14:30 | 50.80831 | 6.97445 | 29594 ft | 442 kts | 24° |
| 2026-05-06 14:30 | 50.83637 | 6.99363 | 28879 ft | 438 kts | 24° |
| 2026-05-06 14:31 | 50.86423 | 7.01270 | 28187 ft | 435 kts | 24° |
| 2026-05-06 14:31 | 50.89186 | 7.03166 | 27502 ft | 432 kts | 23° |
| 2026-05-06 14:31 | 50.91936 | 7.05052 | 26836 ft | 429 kts | 23° |
| 2026-05-06 14:31 | 50.94665 | 7.06924 | 26189 ft | 426 kts | 23° |
| 2026-05-06 14:32 | 50.97380 | 7.08789 | 25556 ft | 424 kts | 23° |
| 2026-05-06 14:32 | 51.00082 | 7.10647 | 25017 ft | 420 kts | 23° |
| 2026-05-06 14:32 | 51.02734 | 7.12478 | 24668 ft | 411 kts | 23° |
| 2026-05-06 14:32 | 51.05333 | 7.14273 | 24402 ft | 404 kts | 23° |
| 2026-05-06 14:33 | 51.07908 | 7.16048 | 23925 ft | 402 kts | 23° |
| 2026-05-06 14:33 | 51.10463 | 7.17809 | 23456 ft | 399 kts | 23° |
| 2026-05-06 14:33 | 51.13003 | 7.19567 | 22903 ft | 397 kts | 23° |
| 2026-05-06 14:33 | 51.15527 | 7.21323 | 22368 ft | 395 kts | 23° |
| 2026-05-06 14:34 | 51.18040 | 7.23074 | 21833 ft | 394 kts | 23° |
| 2026-05-06 14:34 | 51.20548 | 7.24819 | 21307 ft | 392 kts | 23° |
| 2026-05-06 14:34 | 51.23043 | 7.26556 | 20790 ft | 390 kts | 22° |
| 2026-05-06 14:34 | 51.25519 | 7.28282 | 20283 ft | 387 kts | 22° |
| 2026-05-06 14:35 | 51.27981 | 7.29997 | 19777 ft | 385 kts | 22° |
| 2026-05-06 14:35 | 51.30431 | 7.31704 | 19287 ft | 383 kts | 22° |
| 2026-05-06 14:35 | 51.32866 | 7.33403 | 18811 ft | 381 kts | 22° |
| 2026-05-06 14:35 | 51.35287 | 7.35096 | 18338 ft | 379 kts | 22° |
| 2026-05-06 14:36 | 51.37694 | 7.36786 | 17833 ft | 377 kts | 22° |
| 2026-05-06 14:36 | 51.40089 | 7.38468 | 17293 ft | 375 kts | 22° |
| 2026-05-06 14:36 | 51.42472 | 7.40141 | 16770 ft | 373 kts | 22° |
| 2026-05-06 14:36 | 51.44839 | 7.41807 | 16262 ft | 371 kts | 22° |
| 2026-05-06 14:37 | 51.47196 | 7.43465 | 15749 ft | 369 kts | 22° |
| 2026-05-06 14:37 | 51.49547 | 7.45121 | 15251 ft | 368 kts | 22° |
| 2026-05-06 14:37 | 51.51884 | 7.46773 | 14755 ft | 366 kts | 22° |
| 2026-05-06 14:37 | 51.54212 | 7.48418 | 14266 ft | 365 kts | 22° |
| 2026-05-06 14:38 | 51.56533 | 7.50054 | 13774 ft | 363 kts | 22° |
| 2026-05-06 14:38 | 51.58840 | 7.51684 | 13258 ft | 361 kts | 22° |
| 2026-05-06 14:38 | 51.61136 | 7.53311 | 12748 ft | 359 kts | 22° |
| 2026-05-06 14:38 | 51.63403 | 7.54921 | 12356 ft | 354 kts | 23° |
| 2026-05-06 14:39 | 51.65639 | 7.56512 | 11972 ft | 350 kts | 22° |
| 2026-05-06 14:39 | 51.67889 | 7.57935 | 11577 ft | 346 kts | 12° |
| 2026-05-06 14:39 | 51.70254 | 7.58137 | 11212 ft | 339 kts | 349° |
| 2026-05-06 14:39 | 51.72444 | 7.56897 | 10839 ft | 333 kts | 328° |
| 2026-05-06 14:40 | 51.74368 | 7.54863 | 10470 ft | 330 kts | 324° |
| 2026-05-06 14:40 | 51.76234 | 7.52779 | 10279 ft | 321 kts | 323° |
| 2026-05-06 14:40 | 51.78017 | 7.50776 | 10156 ft | 311 kts | 323° |
| 2026-05-06 14:40 | 51.79766 | 7.48813 | 10040 ft | 301 kts | 323° |
| 2026-05-06 14:41 | 51.81488 | 7.46893 | 9928 ft | 293 kts | 325° |
| 2026-05-06 14:41 | 51.83097 | 7.44966 | 9813 ft | 290 kts | 324° |
| 2026-05-06 14:41 | 51.84701 | 7.42958 | 9674 ft | 285 kts | 323° |
| 2026-05-06 14:41 | 51.86222 | 7.41028 | 9510 ft | 279 kts | 323° |
| 2026-05-06 14:42 | 51.87751 | 7.39112 | 9182 ft | 277 kts | 323° |
| 2026-05-06 14:42 | 51.89272 | 7.37206 | 8769 ft | 275 kts | 323° |
| 2026-05-06 14:42 | 51.90786 | 7.35317 | 8365 ft | 274 kts | 323° |
| 2026-05-06 14:42 | 51.92284 | 7.33444 | 7893 ft | 270 kts | 323° |
| 2026-05-06 14:43 | 51.93759 | 7.31575 | 7215 ft | 269 kts | 324° |
| 2026-05-06 14:43 | 51.95221 | 7.29681 | 6808 ft | 268 kts | 324° |
| 2026-05-06 14:43 | 51.96667 | 7.27785 | 6435 ft | 266 kts | 323° |
| 2026-05-06 14:43 | 51.98128 | 7.25945 | 5959 ft | 266 kts | 330° |
| 2026-05-06 14:44 | 51.99834 | 7.24997 | 5722 ft | 257 kts | 355° |
| 2026-05-06 14:44 | 52.01626 | 7.25106 | 5626 ft | 260 kts | 14° |
| 2026-05-06 14:44 | 52.03284 | 7.26205 | 5457 ft | 258 kts | 33° |
| 2026-05-06 14:45 | 52.05404 | 7.30701 | 4893 ft | 253 kts | 70° |
| 2026-05-06 14:45 | 52.05975 | 7.33372 | 4556 ft | 248 kts | 69° |
| 2026-05-06 14:45 | 52.06535 | 7.35988 | 4215 ft | 242 kts | 69° |
| 2026-05-06 14:45 | 52.07074 | 7.38496 | 3917 ft | 228 kts | 69° |
| 2026-05-06 14:46 | 52.07591 | 7.40906 | 3598 ft | 224 kts | 69° |
| 2026-05-06 14:46 | 52.08100 | 7.43279 | 3299 ft | 221 kts | 69° |
| 2026-05-06 14:46 | 52.08601 | 7.45617 | 3003 ft | 217 kts | 69° |
| 2026-05-06 14:46 | 52.09094 | 7.47926 | 2692 ft | 214 kts | 69° |
| 2026-05-06 14:47 | 52.09566 | 7.50136 | 2415 ft | 200 kts | 68° |
| 2026-05-06 14:47 | 52.10005 | 7.52198 | 2138 ft | 186 kts | 68° |
| 2026-05-06 14:47 | 52.10409 | 7.54095 | 1912 ft | 170 kts | 68° |
| 2026-05-06 14:47 | 52.10777 | 7.55824 | 1671 ft | 153 kts | 68° |
| 2026-05-06 14:48 | 52.11105 | 7.57367 | 1487 ft | 137 kts | 67° |
| 2026-05-06 14:48 | 52.11409 | 7.58792 | 1306 ft | 131 kts | 66° |
| 2026-05-06 14:48 | 52.11703 | 7.60169 | 1107 ft | 128 kts | 67° |
| 2026-05-06 14:48 | 52.11997 | 7.61554 | 898 ft | 129 kts | 68° |
| 2026-05-06 14:49 | 52.12291 | 7.62942 | 741 ft | 130 kts | 69° |
| 2026-05-06 14:49 | 52.12584 | 7.64321 | 550 ft | 128 kts | 68° |
| 2026-05-06 14:49 | 52.12880 | 7.65695 | 374 ft | 129 kts | 69° |
| 2026-05-06 14:49 | 52.13162 | 7.67061 | 185 ft | 126 kts | 69° |
| 2026-05-06 14:50 | 52.13411 | 7.68225 | 168 ft | 77 kts | 72° |
| 2026-05-06 14:50 | 52.13516 | 7.68730 | 167 ft | 37 kts | 71° |
| 2026-05-06 14:50 | 52.13593 | 7.69095 | 170 ft | 32 kts | 71° |
| 2026-05-06 14:50 | 52.13660 | 7.69413 | 169 ft | 28 kts | 71° |
| 2026-05-06 14:51 | 52.13721 | 7.69703 | 168 ft | 28 kts | 70° |
| 2026-05-06 14:51 | 52.13758 | 7.69979 | 168 ft | 20 kts | 118° |
| 2026-05-06 14:51 | 52.13636 | 7.70009 | 168 ft | 18 kts | 209° |
| 2026-05-06 14:51 | 52.13580 | 7.69848 | 168 ft | 16 kts | 251° |
| 2026-05-06 14:52 | 52.13546 | 7.69694 | 168 ft | 13 kts | 251° |
| 2026-05-06 14:52 | 52.13512 | 7.69539 | 168 ft | 17 kts | 251° |
| 2026-05-06 14:52 | 52.13466 | 7.69319 | 168 ft | 20 kts | 252° |
| 2026-05-06 14:52 | 52.13394 | 7.69245 | 168 ft | 12 kts | 168° |
| 2026-05-06 14:53 | 52.13320 | 7.69285 | 168 ft | 10 kts | 161° |
| 2026-05-06 14:53 | 52.13259 | 7.69322 | 168 ft | 8 kts | 150° |
| 2026-05-06 14:53 | 52.13243 | 7.69390 | 168 ft | 6 kts | 84° |
| 2026-05-06 14:53 | 52.13255 | 7.69456 | 168 ft | 7 kts | 70° |
| 2026-05-06 14:54 | 52.13244 | 7.69481 | 168 ft | 2 kts | 172° |
| 2026-05-06 14:54 | 52.13221 | 7.69475 | 168 ft | 7 kts | 194° |
| 2026-05-06 14:54 | 52.13193 | 7.69460 | 168 ft | 3 kts | 198° |
| 2026-05-06 14:54 | 52.13183 | 7.69455 | 168 ft | 0 kts | 198° |